sensor_id;sensor_type;location;lat;lon;timestamp;temperature;humidity
20881;DHT22;10600;53.096;8.802;2024-01-06T00:00:07;2.60;99.90
20881;DHT22;10600;53.096;8.802;2024-01-06T00:01:11;2.60;99.90
20881;DHT22;10600;53.096;8.802;2024-01-06T00:02:12;2.60;99.90
20881;DHT22;10600;53.096;8.802;2024-01-06T00:03:13;2.60;99.90
20881;DHT22;10600;53.096;8.802;2024-01-06T00:04:14;2.60;99.90
20881;DHT22;10600;53.096;8.802;2024-01-06T00:05:14;2.60;99.90
20881;DHT22;10600;53.096;8.802;2024-01-06T00:06:15;2.60;99.90
20881;DHT22;10600;53.096;8.802;2024-01-06T00:07:15;2.60;99.90
20881;DHT22;10600;53.096;8.802;2024-01-06T00:08:16;2.60;99.90
20881;DHT22;10600;53.096;8.802;2024-01-06T00:09:16;2.60;99.90
20881;DHT22;10600;53.096;8.802;2024-01-06T00:10:17;2.60;99.90
20881;DHT22;10600;53.096;8.802;2024-01-06T00:11:18;2.60;99.90
20881;DHT22;10600;53.096;8.802;2024-01-06T00:12:18;2.50;99.90
20881;DHT22;10600;53.096;8.802;2024-01-06T00:13:19;2.50;99.90
20881;DHT22;10600;53.096;8.802;2024-01-06T00:14:19;2.50;99.90
20881;DHT22;10600;53.096;8.802;2024-01-06T00:15:20;2.50;99.90
20881;DHT22;10600;53.096;8.802;2024-01-06T00:16:20;2.50;99.90
20881;DHT22;10600;53.096;8.802;2024-01-06T00:17:21;2.50;99.90
20881;DHT22;10600;53.096;8.802;2024-01-06T00:18:21;2.50;99.90
20881;DHT22;10600;53.096;8.802;2024-01-06T00:19:22;2.50;99.90
20881;DHT22;10600;53.096;8.802;2024-01-06T00:20:22;2.50;99.90
20881;DHT22;10600;53.096;8.802;2024-01-06T00:21:23;2.50;99.90
20881;DHT22;10600;53.096;8.802;2024-01-06T00:22:23;2.50;99.90
20881;DHT22;10600;53.096;8.802;2024-01-06T00:23:24;2.50;99.90
20881;DHT22;10600;53.096;8.802;2024-01-06T00:24:24;2.50;99.90
20881;DHT22;10600;53.096;8.802;2024-01-06T00:25:25;2.50;99.90
20881;DHT22;10600;53.096;8.802;2024-01-06T00:26:25;2.50;99.90
20881;DHT22;10600;53.096;8.802;2024-01-06T00:27:26;2.50;99.90
20881;DHT22;10600;53.096;8.802;2024-01-06T00:28:27;2.50;99.90
20881;DHT22;10600;53.096;8.802;2024-01-06T00:29:27;2.50;99.90
20881;DHT22;10600;53.096;8.802;2024-01-06T00:30:28;2.50;99.90
20881;DHT22;10600;53.096;8.802;2024-01-06T00:31:28;2.40;99.90
20881;DHT22;10600;53.096;8.802;2024-01-06T00:32:29;2.50;99.90
20881;DHT22;10600;53.096;8.802;2024-01-06T00:33:29;2.50;99.90
20881;DHT22;10600;53.096;8.802;2024-01-06T00:34:30;2.50;99.90
20881;DHT22;10600;53.096;8.802;2024-01-06T00:35:30;2.50;99.90
20881;DHT22;10600;53.096;8.802;2024-01-06T00:36:31;2.50;99.90
20881;DHT22;10600;53.096;8.802;2024-01-06T00:37:31;2.50;99.90
20881;DHT22;10600;53.096;8.802;2024-01-06T00:38:32;2.50;99.90
20881;DHT22;10600;53.096;8.802;2024-01-06T00:39:32;2.50;99.90
20881;DHT22;10600;53.096;8.802;2024-01-06T00:40:33;2.50;99.90
20881;DHT22;10600;53.096;8.802;2024-01-06T00:41:34;2.50;99.90
20881;DHT22;10600;53.096;8.802;2024-01-06T00:42:34;2.50;99.90
20881;DHT22;10600;53.096;8.802;2024-01-06T00:43:35;2.50;99.90
20881;DHT22;10600;53.096;8.802;2024-01-06T00:44:36;2.40;99.90
20881;DHT22;10600;53.096;8.802;2024-01-06T00:45:37;2.40;99.90
20881;DHT22;10600;53.096;8.802;2024-01-06T00:46:39;2.40;99.90
20881;DHT22;10600;53.096;8.802;2024-01-06T00:47:39;2.40;99.90
20881;DHT22;10600;53.096;8.802;2024-01-06T00:48:40;2.40;99.90
20881;DHT22;10600;53.096;8.802;2024-01-06T00:49:40;2.30;99.90
20881;DHT22;10600;53.096;8.802;2024-01-06T00:50:41;2.40;99.90
20881;DHT22;10600;53.096;8.802;2024-01-06T00:51:41;2.40;99.90
20881;DHT22;10600;53.096;8.802;2024-01-06T00:52:42;2.40;99.90
20881;DHT22;10600;53.096;8.802;2024-01-06T00:53:42;2.40;99.90
20881;DHT22;10600;53.096;8.802;2024-01-06T00:54:43;2.40;99.90
20881;DHT22;10600;53.096;8.802;2024-01-06T00:55:44;2.40;99.90
20881;DHT22;10600;53.096;8.802;2024-01-06T00:56:44;2.40;99.90
20881;DHT22;10600;53.096;8.802;2024-01-06T00:57:45;2.40;99.90
20881;DHT22;10600;53.096;8.802;2024-01-06T00:58:45;2.30;99.90
20881;DHT22;10600;53.096;8.802;2024-01-06T00:59:46;2.30;99.90
20881;DHT22;10600;53.096;8.802;2024-01-06T01:00:46;2.30;99.90
20881;DHT22;10600;53.096;8.802;2024-01-06T01:01:47;2.30;99.90
20881;DHT22;10600;53.096;8.802;2024-01-06T01:02:48;2.30;99.90
20881;DHT22;10600;53.096;8.802;2024-01-06T01:03:48;2.30;99.90
20881;DHT22;10600;53.096;8.802;2024-01-06T01:04:49;2.30;99.90
20881;DHT22;10600;53.096;8.802;2024-01-06T01:05:49;2.30;99.90
20881;DHT22;10600;53.096;8.802;2024-01-06T01:06:50;2.30;99.90
20881;DHT22;10600;53.096;8.802;2024-01-06T01:07:50;2.30;99.90
20881;DHT22;10600;53.096;8.802;2024-01-06T01:08:51;2.30;99.90
20881;DHT22;10600;53.096;8.802;2024-01-06T01:09:51;2.30;99.90
20881;DHT22;10600;53.096;8.802;2024-01-06T01:10:52;2.30;99.90
20881;DHT22;10600;53.096;8.802;2024-01-06T01:11:52;2.30;99.90
20881;DHT22;10600;53.096;8.802;2024-01-06T01:12:53;2.30;99.90
20881;DHT22;10600;53.096;8.802;2024-01-06T01:13:53;2.30;99.90
20881;DHT22;10600;53.096;8.802;2024-01-06T01:14:54;2.30;99.90
20881;DHT22;10600;53.096;8.802;2024-01-06T01:15:55;2.30;99.90
20881;DHT22;10600;53.096;8.802;2024-01-06T01:16:55;2.30;99.90
20881;DHT22;10600;53.096;8.802;2024-01-06T01:17:56;2.30;99.90
20881;DHT22;10600;53.096;8.802;2024-01-06T01:18:56;2.30;99.90
20881;DHT22;10600;53.096;8.802;2024-01-06T01:19:57;2.30;99.90
20881;DHT22;10600;53.096;8.802;2024-01-06T01:20:58;2.30;99.90
20881;DHT22;10600;53.096;8.802;2024-01-06T01:21:58;2.20;99.90
20881;DHT22;10600;53.096;8.802;2024-01-06T01:22:59;2.30;99.90
20881;DHT22;10600;53.096;8.802;2024-01-06T01:23:59;2.30;99.90
20881;DHT22;10600;53.096;8.802;2024-01-06T01:25:00;2.20;99.90
20881;DHT22;10600;53.096;8.802;2024-01-06T01:26:05;2.30;99.90
20881;DHT22;10600;53.096;8.802;2024-01-06T01:27:06;2.20;99.90
20881;DHT22;10600;53.096;8.802;2024-01-06T01:28:07;2.30;99.90
20881;DHT22;10600;53.096;8.802;2024-01-06T01:29:07;2.20;99.90
20881;DHT22;10600;53.096;8.802;2024-01-06T01:30:08;2.20;99.90
20881;DHT22;10600;53.096;8.802;2024-01-06T01:31:09;2.20;99.90
20881;DHT22;10600;53.096;8.802;2024-01-06T01:32:09;2.30;99.90
20881;DHT22;10600;53.096;8.802;2024-01-06T01:33:10;2.20;99.90
20881;DHT22;10600;53.096;8.802;2024-01-06T01:34:10;2.20;99.90
20881;DHT22;10600;53.096;8.802;2024-01-06T01:35:11;2.30;99.90
20881;DHT22;10600;53.096;8.802;2024-01-06T01:36:12;2.30;99.90
20881;DHT22;10600;53.096;8.802;2024-01-06T01:37:13;2.30;99.90
20881;DHT22;10600;53.096;8.802;2024-01-06T01:38:13;2.30;99.90
20881;DHT22;10600;53.096;8.802;2024-01-06T01:39:14;2.30;99.90
20881;DHT22;10600;53.096;8.802;2024-01-06T01:40:14;2.20;99.90
20881;DHT22;10600;53.096;8.802;2024-01-06T01:41:15;2.20;99.90
20881;DHT22;10600;53.096;8.802;2024-01-06T01:42:15;2.20;99.90
20881;DHT22;10600;53.096;8.802;2024-01-06T01:43:19;2.30;99.90
20881;DHT22;10600;53.096;8.802;2024-01-06T01:44:20;2.20;99.90
20881;DHT22;10600;53.096;8.802;2024-01-06T01:45:20;2.20;99.90
20881;DHT22;10600;53.096;8.802;2024-01-06T01:46:21;2.30;99.90
20881;DHT22;10600;53.096;8.802;2024-01-06T01:47:22;2.30;99.90
20881;DHT22;10600;53.096;8.802;2024-01-06T01:48:23;2.20;99.90
20881;DHT22;10600;53.096;8.802;2024-01-06T01:49:25;2.20;99.90
20881;DHT22;10600;53.096;8.802;2024-01-06T01:50:26;2.20;99.90
20881;DHT22;10600;53.096;8.802;2024-01-06T01:51:30;2.20;99.90
20881;DHT22;10600;53.096;8.802;2024-01-06T01:52:31;2.20;99.90
20881;DHT22;10600;53.096;8.802;2024-01-06T01:53:33;2.20;99.90
20881;DHT22;10600;53.096;8.802;2024-01-06T01:54:33;2.10;99.90
20881;DHT22;10600;53.096;8.802;2024-01-06T01:55:34;2.10;99.90
20881;DHT22;10600;53.096;8.802;2024-01-06T01:56:36;2.10;99.90
20881;DHT22;10600;53.096;8.802;2024-01-06T01:57:39;2.10;99.90
20881;DHT22;10600;53.096;8.802;2024-01-06T01:58:39;2.10;99.90
20881;DHT22;10600;53.096;8.802;2024-01-06T01:59:41;2.10;99.90
20881;DHT22;10600;53.096;8.802;2024-01-06T02:00:42;2.10;99.90
20881;DHT22;10600;53.096;8.802;2024-01-06T02:01:43;2.10;99.90
20881;DHT22;10600;53.096;8.802;2024-01-06T02:02:43;2.10;99.90
20881;DHT22;10600;53.096;8.802;2024-01-06T02:03:44;2.10;99.90
20881;DHT22;10600;53.096;8.802;2024-01-06T02:04:45;2.10;99.90
20881;DHT22;10600;53.096;8.802;2024-01-06T02:05:45;2.10;99.90
20881;DHT22;10600;53.096;8.802;2024-01-06T02:06:46;2.10;99.90
20881;DHT22;10600;53.096;8.802;2024-01-06T02:07:47;2.10;99.90
20881;DHT22;10600;53.096;8.802;2024-01-06T02:08:48;2.10;99.90
20881;DHT22;10600;53.096;8.802;2024-01-06T02:09:48;2.00;99.90
20881;DHT22;10600;53.096;8.802;2024-01-06T02:10:49;2.10;99.90
20881;DHT22;10600;53.096;8.802;2024-01-06T02:11:49;2.00;99.90
20881;DHT22;10600;53.096;8.802;2024-01-06T02:12:50;2.00;99.90
20881;DHT22;10600;53.096;8.802;2024-01-06T02:13:51;2.10;99.90
20881;DHT22;10600;53.096;8.802;2024-01-06T02:14:52;2.10;99.90
20881;DHT22;10600;53.096;8.802;2024-01-06T02:15:52;2.00;99.90
20881;DHT22;10600;53.096;8.802;2024-01-06T02:16:53;2.00;99.90
20881;DHT22;10600;53.096;8.802;2024-01-06T02:17:54;2.00;99.90
20881;DHT22;10600;53.096;8.802;2024-01-06T02:18:54;2.00;99.90
20881;DHT22;10600;53.096;8.802;2024-01-06T02:19:56;2.00;99.90
20881;DHT22;10600;53.096;8.802;2024-01-06T02:21:01;2.00;99.90
20881;DHT22;10600;53.096;8.802;2024-01-06T02:22:02;2.00;99.90
20881;DHT22;10600;53.096;8.802;2024-01-06T02:23:02;2.00;99.90
20881;DHT22;10600;53.096;8.802;2024-01-06T02:24:03;2.00;99.90
20881;DHT22;10600;53.096;8.802;2024-01-06T02:25:07;2.00;99.90
20881;DHT22;10600;53.096;8.802;2024-01-06T02:26:13;2.10;99.90
20881;DHT22;10600;53.096;8.802;2024-01-06T02:27:15;2.00;99.90
20881;DHT22;10600;53.096;8.802;2024-01-06T02:28:15;2.00;99.90
20881;DHT22;10600;53.096;8.802;2024-01-06T02:29:16;2.00;99.90
20881;DHT22;10600;53.096;8.802;2024-01-06T02:30:16;2.00;99.90
20881;DHT22;10600;53.096;8.802;2024-01-06T02:31:17;2.00;99.90
20881;DHT22;10600;53.096;8.802;2024-01-06T02:32:17;2.00;99.90
20881;DHT22;10600;53.096;8.802;2024-01-06T02:33:18;2.00;99.90
20881;DHT22;10600;53.096;8.802;2024-01-06T02:34:24;2.00;99.90
20881;DHT22;10600;53.096;8.802;2024-01-06T02:35:24;2.00;99.90
20881;DHT22;10600;53.096;8.802;2024-01-06T02:36:25;2.00;99.90
20881;DHT22;10600;53.096;8.802;2024-01-06T02:37:25;2.00;99.90
20881;DHT22;10600;53.096;8.802;2024-01-06T02:38:26;2.00;99.90
20881;DHT22;10600;53.096;8.802;2024-01-06T02:39:26;2.00;99.90
20881;DHT22;10600;53.096;8.802;2024-01-06T02:40:27;2.00;99.90
20881;DHT22;10600;53.096;8.802;2024-01-06T02:41:27;2.00;99.90
20881;DHT22;10600;53.096;8.802;2024-01-06T02:42:28;2.00;99.90
20881;DHT22;10600;53.096;8.802;2024-01-06T02:43:28;2.00;99.90
20881;DHT22;10600;53.096;8.802;2024-01-06T02:44:29;2.00;99.90
20881;DHT22;10600;53.096;8.802;2024-01-06T02:45:29;2.00;99.90
20881;DHT22;10600;53.096;8.802;2024-01-06T02:46:30;2.00;99.90
20881;DHT22;10600;53.096;8.802;2024-01-06T02:47:30;2.00;99.90
20881;DHT22;10600;53.096;8.802;2024-01-06T02:48:31;2.00;99.90
20881;DHT22;10600;53.096;8.802;2024-01-06T02:49:31;2.00;99.90
20881;DHT22;10600;53.096;8.802;2024-01-06T02:50:32;2.00;99.90
20881;DHT22;10600;53.096;8.802;2024-01-06T02:51:32;2.00;99.90
20881;DHT22;10600;53.096;8.802;2024-01-06T02:52:33;2.00;99.90
20881;DHT22;10600;53.096;8.802;2024-01-06T02:53:33;1.90;99.90
20881;DHT22;10600;53.096;8.802;2024-01-06T02:54:34;2.00;99.90
20881;DHT22;10600;53.096;8.802;2024-01-06T02:55:35;1.90;99.90
20881;DHT22;10600;53.096;8.802;2024-01-06T02:56:35;1.90;99.90
20881;DHT22;10600;53.096;8.802;2024-01-06T02:57:36;2.00;99.90
20881;DHT22;10600;53.096;8.802;2024-01-06T02:58:38;2.00;99.90
20881;DHT22;10600;53.096;8.802;2024-01-06T02:59:38;2.00;99.90
20881;DHT22;10600;53.096;8.802;2024-01-06T03:00:39;1.90;99.90
20881;DHT22;10600;53.096;8.802;2024-01-06T03:01:39;1.90;99.90
20881;DHT22;10600;53.096;8.802;2024-01-06T03:02:40;1.90;99.90
20881;DHT22;10600;53.096;8.802;2024-01-06T03:03:43;1.90;99.90
20881;DHT22;10600;53.096;8.802;2024-01-06T03:04:43;1.90;99.90
20881;DHT22;10600;53.096;8.802;2024-01-06T03:05:44;1.90;99.90
20881;DHT22;10600;53.096;8.802;2024-01-06T03:06:44;1.80;99.90
20881;DHT22;10600;53.096;8.802;2024-01-06T03:07:46;1.90;99.90
20881;DHT22;10600;53.096;8.802;2024-01-06T03:08:47;1.80;99.90
20881;DHT22;10600;53.096;8.802;2024-01-06T03:09:47;1.90;99.90
20881;DHT22;10600;53.096;8.802;2024-01-06T03:10:48;1.80;99.90
20881;DHT22;10600;53.096;8.802;2024-01-06T03:11:49;1.90;99.90
20881;DHT22;10600;53.096;8.802;2024-01-06T03:12:49;1.90;99.90
20881;DHT22;10600;53.096;8.802;2024-01-06T03:13:50;1.90;99.90
20881;DHT22;10600;53.096;8.802;2024-01-06T03:14:50;1.90;99.90
20881;DHT22;10600;53.096;8.802;2024-01-06T03:15:52;1.90;99.90
20881;DHT22;10600;53.096;8.802;2024-01-06T03:16:52;1.90;99.90
20881;DHT22;10600;53.096;8.802;2024-01-06T03:17:53;1.90;99.90
20881;DHT22;10600;53.096;8.802;2024-01-06T03:18:53;1.80;99.90
20881;DHT22;10600;53.096;8.802;2024-01-06T03:19:54;1.80;99.90
20881;DHT22;10600;53.096;8.802;2024-01-06T03:20:55;1.80;99.90
20881;DHT22;10600;53.096;8.802;2024-01-06T03:21:55;1.80;99.90
20881;DHT22;10600;53.096;8.802;2024-01-06T03:22:56;1.80;99.90
20881;DHT22;10600;53.096;8.802;2024-01-06T03:23:56;1.80;99.90
20881;DHT22;10600;53.096;8.802;2024-01-06T03:24:57;1.80;99.90
20881;DHT22;10600;53.096;8.802;2024-01-06T03:25:57;1.80;99.90
20881;DHT22;10600;53.096;8.802;2024-01-06T03:26:58;1.80;99.90
20881;DHT22;10600;53.096;8.802;2024-01-06T03:27:58;1.80;99.90
20881;DHT22;10600;53.096;8.802;2024-01-06T03:28:59;1.80;99.90
20881;DHT22;10600;53.096;8.802;2024-01-06T03:30:00;1.80;99.90
20881;DHT22;10600;53.096;8.802;2024-01-06T03:31:00;1.80;99.90
20881;DHT22;10600;53.096;8.802;2024-01-06T03:32:01;1.80;99.90
20881;DHT22;10600;53.096;8.802;2024-01-06T03:33:01;1.80;99.90
20881;DHT22;10600;53.096;8.802;2024-01-06T03:34:02;1.80;99.90
20881;DHT22;10600;53.096;8.802;2024-01-06T03:35:02;1.70;99.90
20881;DHT22;10600;53.096;8.802;2024-01-06T03:36:06;1.70;99.90
20881;DHT22;10600;53.096;8.802;2024-01-06T03:37:07;1.80;99.90
20881;DHT22;10600;53.096;8.802;2024-01-06T03:38:08;1.80;99.90
20881;DHT22;10600;53.096;8.802;2024-01-06T03:39:08;1.80;99.90
20881;DHT22;10600;53.096;8.802;2024-01-06T03:40:11;1.70;99.90
20881;DHT22;10600;53.096;8.802;2024-01-06T03:41:11;1.80;99.90
20881;DHT22;10600;53.096;8.802;2024-01-06T03:42:12;1.80;99.90
20881;DHT22;10600;53.096;8.802;2024-01-06T03:43:12;1.80;99.90
20881;DHT22;10600;53.096;8.802;2024-01-06T03:44:13;1.70;99.90
20881;DHT22;10600;53.096;8.802;2024-01-06T03:45:13;1.70;99.90
20881;DHT22;10600;53.096;8.802;2024-01-06T03:46:14;1.70;99.90
20881;DHT22;10600;53.096;8.802;2024-01-06T03:47:14;1.70;99.90
20881;DHT22;10600;53.096;8.802;2024-01-06T03:48:15;1.70;99.90
20881;DHT22;10600;53.096;8.802;2024-01-06T03:49:15;1.70;99.90
20881;DHT22;10600;53.096;8.802;2024-01-06T03:50:18;1.70;99.90
20881;DHT22;10600;53.096;8.802;2024-01-06T03:51:19;1.70;99.90
20881;DHT22;10600;53.096;8.802;2024-01-06T03:52:19;1.70;99.90
20881;DHT22;10600;53.096;8.802;2024-01-06T03:53:20;1.70;99.90
20881;DHT22;10600;53.096;8.802;2024-01-06T03:54:20;1.70;99.90
20881;DHT22;10600;53.096;8.802;2024-01-06T03:55:21;1.70;99.90
20881;DHT22;10600;53.096;8.802;2024-01-06T03:56:22;1.70;99.90
20881;DHT22;10600;53.096;8.802;2024-01-06T03:57:22;1.70;99.90
20881;DHT22;10600;53.096;8.802;2024-01-06T03:58:23;1.70;99.90
20881;DHT22;10600;53.096;8.802;2024-01-06T03:59:23;1.70;99.90
20881;DHT22;10600;53.096;8.802;2024-01-06T04:00:25;1.70;99.90
20881;DHT22;10600;53.096;8.802;2024-01-06T04:01:26;1.70;99.90
20881;DHT22;10600;53.096;8.802;2024-01-06T04:02:26;1.70;99.90
20881;DHT22;10600;53.096;8.802;2024-01-06T04:03:27;1.70;99.90
20881;DHT22;10600;53.096;8.802;2024-01-06T04:04:27;1.70;99.90
20881;DHT22;10600;53.096;8.802;2024-01-06T04:05:28;1.70;99.90
20881;DHT22;10600;53.096;8.802;2024-01-06T04:06:29;1.70;99.90
20881;DHT22;10600;53.096;8.802;2024-01-06T04:07:30;1.70;99.90
20881;DHT22;10600;53.096;8.802;2024-01-06T04:08:30;1.70;99.90
20881;DHT22;10600;53.096;8.802;2024-01-06T04:09:31;1.70;99.90
20881;DHT22;10600;53.096;8.802;2024-01-06T04:10:31;1.70;99.90
20881;DHT22;10600;53.096;8.802;2024-01-06T04:11:32;1.70;99.90
20881;DHT22;10600;53.096;8.802;2024-01-06T04:12:32;1.70;99.90
20881;DHT22;10600;53.096;8.802;2024-01-06T04:13:33;1.70;99.90
20881;DHT22;10600;53.096;8.802;2024-01-06T04:14:33;1.70;99.90
20881;DHT22;10600;53.096;8.802;2024-01-06T04:15:34;1.70;99.90
20881;DHT22;10600;53.096;8.802;2024-01-06T04:16:34;1.70;99.90
20881;DHT22;10600;53.096;8.802;2024-01-06T04:17:35;1.70;99.90
20881;DHT22;10600;53.096;8.802;2024-01-06T04:18:35;1.70;99.90
20881;DHT22;10600;53.096;8.802;2024-01-06T04:19:36;1.70;99.90
20881;DHT22;10600;53.096;8.802;2024-01-06T04:20:37;1.70;99.90
20881;DHT22;10600;53.096;8.802;2024-01-06T04:21:38;1.70;99.90
20881;DHT22;10600;53.096;8.802;2024-01-06T04:22:39;1.70;99.90
20881;DHT22;10600;53.096;8.802;2024-01-06T04:23:39;1.70;99.90
20881;DHT22;10600;53.096;8.802;2024-01-06T04:24:40;1.70;99.90
20881;DHT22;10600;53.096;8.802;2024-01-06T04:25:41;1.70;99.90
20881;DHT22;10600;53.096;8.802;2024-01-06T04:26:41;1.70;99.90
20881;DHT22;10600;53.096;8.802;2024-01-06T04:27:45;1.70;99.90
20881;DHT22;10600;53.096;8.802;2024-01-06T04:28:47;1.70;99.90
20881;DHT22;10600;53.096;8.802;2024-01-06T04:29:48;1.70;99.90
20881;DHT22;10600;53.096;8.802;2024-01-06T04:30:49;1.70;99.90
20881;DHT22;10600;53.096;8.802;2024-01-06T04:31:49;1.70;99.90
20881;DHT22;10600;53.096;8.802;2024-01-06T04:32:50;1.70;99.90
20881;DHT22;10600;53.096;8.802;2024-01-06T04:33:50;1.80;99.90
20881;DHT22;10600;53.096;8.802;2024-01-06T04:34:51;1.80;99.90
20881;DHT22;10600;53.096;8.802;2024-01-06T04:35:51;1.80;99.90
20881;DHT22;10600;53.096;8.802;2024-01-06T04:36:52;1.80;99.90
20881;DHT22;10600;53.096;8.802;2024-01-06T04:37:53;1.80;99.90
20881;DHT22;10600;53.096;8.802;2024-01-06T04:38:53;1.80;99.90
20881;DHT22;10600;53.096;8.802;2024-01-06T04:39:54;1.80;99.90
20881;DHT22;10600;53.096;8.802;2024-01-06T04:40:55;1.70;99.90
20881;DHT22;10600;53.096;8.802;2024-01-06T04:41:55;1.70;99.90
20881;DHT22;10600;53.096;8.802;2024-01-06T04:42:56;1.70;99.90
20881;DHT22;10600;53.096;8.802;2024-01-06T04:43:56;1.70;99.90
20881;DHT22;10600;53.096;8.802;2024-01-06T04:44:57;1.70;99.90
20881;DHT22;10600;53.096;8.802;2024-01-06T04:45:57;1.70;99.90
20881;DHT22;10600;53.096;8.802;2024-01-06T04:46:58;1.80;99.90
20881;DHT22;10600;53.096;8.802;2024-01-06T04:47:59;1.80;99.90
20881;DHT22;10600;53.096;8.802;2024-01-06T04:48:59;1.70;99.90
20881;DHT22;10600;53.096;8.802;2024-01-06T04:50:00;1.70;99.90
20881;DHT22;10600;53.096;8.802;2024-01-06T04:51:00;1.70;99.90
20881;DHT22;10600;53.096;8.802;2024-01-06T04:52:03;1.70;99.90
20881;DHT22;10600;53.096;8.802;2024-01-06T04:53:04;1.70;99.90
20881;DHT22;10600;53.096;8.802;2024-01-06T04:54:04;1.70;99.90
20881;DHT22;10600;53.096;8.802;2024-01-06T04:55:05;1.70;99.90
20881;DHT22;10600;53.096;8.802;2024-01-06T04:56:05;1.70;99.90
20881;DHT22;10600;53.096;8.802;2024-01-06T04:57:06;1.70;99.90
20881;DHT22;10600;53.096;8.802;2024-01-06T04:58:07;1.70;99.90
20881;DHT22;10600;53.096;8.802;2024-01-06T04:59:07;1.70;99.90
20881;DHT22;10600;53.096;8.802;2024-01-06T05:00:08;1.70;99.90
20881;DHT22;10600;53.096;8.802;2024-01-06T05:01:09;1.70;99.90
20881;DHT22;10600;53.096;8.802;2024-01-06T05:02:10;1.70;99.90
20881;DHT22;10600;53.096;8.802;2024-01-06T05:03:10;1.70;99.90
20881;DHT22;10600;53.096;8.802;2024-01-06T05:04:11;1.70;99.90
20881;DHT22;10600;53.096;8.802;2024-01-06T05:05:11;1.70;99.90
20881;DHT22;10600;53.096;8.802;2024-01-06T05:06:12;1.70;99.90
20881;DHT22;10600;53.096;8.802;2024-01-06T05:07:12;1.70;99.90
20881;DHT22;10600;53.096;8.802;2024-01-06T05:08:13;1.70;99.90
20881;DHT22;10600;53.096;8.802;2024-01-06T05:09:13;1.70;99.90
20881;DHT22;10600;53.096;8.802;2024-01-06T05:10:14;1.70;99.90
20881;DHT22;10600;53.096;8.802;2024-01-06T05:11:14;1.70;99.90
20881;DHT22;10600;53.096;8.802;2024-01-06T05:12:15;1.70;99.90
20881;DHT22;10600;53.096;8.802;2024-01-06T05:13:15;1.70;99.90
20881;DHT22;10600;53.096;8.802;2024-01-06T05:14:17;1.70;99.90
20881;DHT22;10600;53.096;8.802;2024-01-06T05:15:18;1.70;99.90
20881;DHT22;10600;53.096;8.802;2024-01-06T05:16:19;1.70;99.90
20881;DHT22;10600;53.096;8.802;2024-01-06T05:17:19;1.70;99.90
20881;DHT22;10600;53.096;8.802;2024-01-06T05:18:20;1.70;99.90
20881;DHT22;10600;53.096;8.802;2024-01-06T05:19:20;1.80;99.90
20881;DHT22;10600;53.096;8.802;2024-01-06T05:20:21;1.80;99.90
20881;DHT22;10600;53.096;8.802;2024-01-06T05:21:22;1.70;99.90
20881;DHT22;10600;53.096;8.802;2024-01-06T05:22:22;1.70;99.90
20881;DHT22;10600;53.096;8.802;2024-01-06T05:23:23;1.70;99.90
20881;DHT22;10600;53.096;8.802;2024-01-06T05:24:23;1.70;99.90
20881;DHT22;10600;53.096;8.802;2024-01-06T05:25:24;1.70;99.90
20881;DHT22;10600;53.096;8.802;2024-01-06T05:26:24;1.70;99.90
20881;DHT22;10600;53.096;8.802;2024-01-06T05:27:25;1.70;99.90
20881;DHT22;10600;53.096;8.802;2024-01-06T05:28:25;1.70;99.90
20881;DHT22;10600;53.096;8.802;2024-01-06T05:29:26;1.70;99.90
20881;DHT22;10600;53.096;8.802;2024-01-06T05:30:27;1.60;99.90
20881;DHT22;10600;53.096;8.802;2024-01-06T05:31:27;1.60;99.90
20881;DHT22;10600;53.096;8.802;2024-01-06T05:32:28;1.60;99.90
20881;DHT22;10600;53.096;8.802;2024-01-06T05:33:28;1.60;99.90
20881;DHT22;10600;53.096;8.802;2024-01-06T05:34:29;1.60;99.90
20881;DHT22;10600;53.096;8.802;2024-01-06T05:35:29;1.60;99.90
20881;DHT22;10600;53.096;8.802;2024-01-06T05:36:30;1.60;99.90
20881;DHT22;10600;53.096;8.802;2024-01-06T05:37:31;1.60;99.90
20881;DHT22;10600;53.096;8.802;2024-01-06T05:38:32;1.60;99.90
20881;DHT22;10600;53.096;8.802;2024-01-06T05:39:32;1.60;99.90
20881;DHT22;10600;53.096;8.802;2024-01-06T05:40:33;1.60;99.90
20881;DHT22;10600;53.096;8.802;2024-01-06T05:41:40;1.60;99.90
20881;DHT22;10600;53.096;8.802;2024-01-06T05:42:41;1.60;99.90
20881;DHT22;10600;53.096;8.802;2024-01-06T05:43:42;1.60;99.90
20881;DHT22;10600;53.096;8.802;2024-01-06T05:44:42;1.60;99.90
20881;DHT22;10600;53.096;8.802;2024-01-06T05:45:43;1.60;99.90
20881;DHT22;10600;53.096;8.802;2024-01-06T05:46:43;1.60;99.90
20881;DHT22;10600;53.096;8.802;2024-01-06T05:47:44;1.60;99.90
20881;DHT22;10600;53.096;8.802;2024-01-06T05:48:44;1.60;99.90
20881;DHT22;10600;53.096;8.802;2024-01-06T05:49:45;1.60;99.90
20881;DHT22;10600;53.096;8.802;2024-01-06T05:50:45;1.60;99.90
20881;DHT22;10600;53.096;8.802;2024-01-06T05:51:46;1.50;99.90
20881;DHT22;10600;53.096;8.802;2024-01-06T05:52:46;1.50;99.90
20881;DHT22;10600;53.096;8.802;2024-01-06T05:53:50;1.50;99.90
20881;DHT22;10600;53.096;8.802;2024-01-06T05:54:51;1.50;99.90
20881;DHT22;10600;53.096;8.802;2024-01-06T05:55:51;1.50;99.90
20881;DHT22;10600;53.096;8.802;2024-01-06T05:56:52;1.50;99.90
20881;DHT22;10600;53.096;8.802;2024-01-06T05:57:52;1.50;99.90
20881;DHT22;10600;53.096;8.802;2024-01-06T05:58:53;1.50;99.90
20881;DHT22;10600;53.096;8.802;2024-01-06T05:59:54;1.50;99.90
20881;DHT22;10600;53.096;8.802;2024-01-06T06:00:54;1.50;99.90
20881;DHT22;10600;53.096;8.802;2024-01-06T06:01:55;1.50;99.90
20881;DHT22;10600;53.096;8.802;2024-01-06T06:02:55;1.50;99.90
20881;DHT22;10600;53.096;8.802;2024-01-06T06:03:56;1.50;99.90
20881;DHT22;10600;53.096;8.802;2024-01-06T06:04:56;1.50;99.90
20881;DHT22;10600;53.096;8.802;2024-01-06T06:05:57;1.50;99.90
20881;DHT22;10600;53.096;8.802;2024-01-06T06:06:57;1.50;99.90
20881;DHT22;10600;53.096;8.802;2024-01-06T06:07:58;1.50;99.90
20881;DHT22;10600;53.096;8.802;2024-01-06T06:08:58;1.50;99.90
20881;DHT22;10600;53.096;8.802;2024-01-06T06:09:59;1.50;99.90
20881;DHT22;10600;53.096;8.802;2024-01-06T06:11:03;1.40;99.90
20881;DHT22;10600;53.096;8.802;2024-01-06T06:12:11;1.50;99.90
20881;DHT22;10600;53.096;8.802;2024-01-06T06:13:11;1.50;99.90
20881;DHT22;10600;53.096;8.802;2024-01-06T06:14:12;1.50;99.90
20881;DHT22;10600;53.096;8.802;2024-01-06T06:15:13;1.50;99.90
20881;DHT22;10600;53.096;8.802;2024-01-06T06:16:13;1.50;99.90
20881;DHT22;10600;53.096;8.802;2024-01-06T06:17:14;1.50;99.90
20881;DHT22;10600;53.096;8.802;2024-01-06T06:18:14;1.50;99.90
20881;DHT22;10600;53.096;8.802;2024-01-06T06:19:15;1.50;99.90
20881;DHT22;10600;53.096;8.802;2024-01-06T06:20:15;1.50;99.90
20881;DHT22;10600;53.096;8.802;2024-01-06T06:21:16;1.50;99.90
20881;DHT22;10600;53.096;8.802;2024-01-06T06:22:16;1.50;99.90
20881;DHT22;10600;53.096;8.802;2024-01-06T06:23:17;1.50;99.90
20881;DHT22;10600;53.096;8.802;2024-01-06T06:24:17;1.50;99.90
20881;DHT22;10600;53.096;8.802;2024-01-06T06:25:18;1.50;99.90
20881;DHT22;10600;53.096;8.802;2024-01-06T06:26:18;1.50;99.90
20881;DHT22;10600;53.096;8.802;2024-01-06T06:27:19;1.60;99.90
20881;DHT22;10600;53.096;8.802;2024-01-06T06:28:19;1.60;99.90
20881;DHT22;10600;53.096;8.802;2024-01-06T06:29:20;1.60;99.90